Time;durP1;ratioP1;P1;durP2;ratioP2;P2;SDS_P1;SDS_P2;PMS_P1;PMS_P2;Temp;Humidity;BMP_temperature;BMP_pressure;BME280_temperature;BME280_humidity;BME280_pressure;Samples;Min_cycle;Max_cycle;Signal;HPM_P1;HPM_P2
2022/11/14 00:02:11;;;;;;;;;;;;;;;;;;5108743;28;20400;-55
2022/11/14 00:04:37;;;;;;;;;;;;;;;;;;5108058;28;19916;-54
2022/11/14 00:07:02;;;;;;;;;;;;;;;;;;5106926;28;20431;-55
2022/11/14 00:09:28;;;;;;;;;;;;;;;;;;5105010;28;19930;-52
2022/11/14 00:11:53;;;;;;;;;;;;;;;;;;5107411;28;20419;-52
2022/11/14 00:14:19;;;;;;;;;;;;;;;;;;5108528;28;19916;-56
2022/11/14 00:16:44;;;;;;;;;;;;;;;;;;5107554;28;19958;-54
2022/11/14 00:19:09;;;;;;;;;;;;;;;;;;5108150;28;20680;-55
2022/11/14 00:21:34;;;;;;;;;;;;;;;;;;5108389;28;19939;-55
2022/11/14 00:24:00;;;;;;;;;;;;;;;;;;5107067;28;20297;-54
2022/11/14 00:26:25;;;;;;;;;;;;;;;;;;5107665;28;19916;-55
2022/11/14 00:28:50;;;;;;;;;;;;;;;;;;5108541;28;19923;-55
2022/11/14 00:31:16;;;;;;;;;;;;;;;;;;5108767;28;20381;-55
2022/11/14 00:33:41;;;;;;;;;;;;;;;;;;5107881;28;19922;-55
2022/11/14 00:36:06;;;;;;;;;;;;;;;;;;5108275;28;19919;-55
2022/11/14 00:38:31;;;;;;;;;;;;;;;;;;5106845;28;19923;-53
2022/11/14 00:40:57;;;;;;;;;;;;;;;;;;5108398;28;19955;-55
2022/11/14 00:43:22;;;;;;;;;;;;;;;;;;5107070;28;20026;-54
2022/11/14 00:45:47;;;;;;;;;;;;;;;;;;5108118;28;19961;-55
2022/11/14 00:48:13;;;;;;;;;;;;;;;;;;5106655;28;19915;-55
2022/11/14 00:50:39;;;;;;;;;;;;;;;;;;5107701;28;19938;-53
2022/11/14 00:53:04;;;;;;;;;;;;;;;;;;5107992;28;19927;-53
2022/11/14 00:55:29;;;;;;;;;;;;;;;;;;5108394;28;19927;-55
2022/11/14 00:57:55;;;;;;;;;;;;;;;;;;5108309;28;19915;-55
2022/11/14 01:00:20;;;;;;;;;;;;;;;;;;5108914;28;19998;-55
2022/11/14 01:02:45;;;;;;;;;;;;;;;;;;5108943;28;19964;-52
2022/11/14 01:05:10;;;;;;;;;;;;;;;;;;5106104;28;19950;-55
2022/11/14 01:07:36;;;;;;;;;;;;;;;;;;5108918;28;19961;-54
2022/11/14 01:10:01;;;;;;;;;;;;;;;;;;5107742;28;19942;-55
2022/11/14 01:12:26;;;;;;;;;;;;;;;;;;5107704;28;19916;-54
2022/11/14 01:14:52;;;;;;;;;;;;;;;;;;5106493;28;19969;-54
2022/11/14 01:17:17;;;;;;;;;;;;;;;;;;5107380;28;19920;-53
2022/11/14 01:19:42;;;;;;;;;;;;;;;;;;5107182;28;20265;-54
2022/11/14 01:22:07;;;;;;;;;;;;;;;;;;5107927;28;19945;-53
2022/11/14 01:24:33;;;;;;;;;;;;;;;;;;5104919;28;19912;-54
2022/11/14 01:26:58;;;;;;;;;;;;;;;;;;5108772;28;19922;-53
2022/11/14 01:29:23;;;;;;;;;;;;;;;;;;5109752;28;20273;-54
2022/11/14 01:31:49;;;;;;;;;;;;;;;;;;5107429;28;19920;-55
2022/11/14 01:34:14;;;;;;;;;;;;;;;;;;5108236;28;20371;-54
2022/11/14 01:36:39;;;;;;;;;;;;;;;;;;5113224;28;19920;-53
2022/11/14 01:39:04;;;;;;;;;;;;;;;;;;5113049;28;20381;-53
2022/11/14 01:41:30;;;;;;;;;;;;;;;;;;5111544;28;19919;-54
2022/11/14 01:43:55;;;;;;;;;;;;;;;;;;5113695;28;19920;-53
2022/11/14 01:46:22;;;;;;;;;;;;;;;;;;5112968;28;20433;-54
2022/11/14 01:48:53;;;;;;;;;;;;;;;;;;5106100;28;20437;-54
2022/11/14 01:51:48;;;;;;;;;;;;;;;;;;5110651;28;19938;-55
2022/11/14 01:54:19;;;;;;;;;;;;;;;;;;5097792;28;19922;-53
2022/11/14 01:56:50;;;;;;;;;;;;;;;;;;5111207;28;19916;-55
2022/11/14 01:59:18;;;;;;;;;;;;;;;;;;5112262;28;20300;-55
2022/11/14 02:01:45;;;;;;;;;;;;;;;;;;5111353;28;20573;-53
2022/11/14 02:04:12;;;;;;;;;;;;;;;;;;5111105;28;19950;-55
2022/11/14 02:06:38;;;;;;;;;;;;;;;;;;5111681;28;19941;-54
2022/11/14 02:09:04;;;;;;;;;;;;;;;;;;5112621;28;20382;-54
2022/11/14 02:11:31;;;;;;;;;;;;;;;;;;5112167;28;19931;-55
2022/11/14 02:13:58;;;;;;;;;;;;;;;;;;5112086;28;19915;-55
2022/11/14 02:16:24;;;;;;;;;;;;;;;;;;5110447;28;19916;-54
2022/11/14 02:18:49;;;;;;;;;;;;;;;;;;5111832;28;19924;-53
2022/11/14 02:21:14;;;;;;;;;;;;;;;;;;5110745;28;19916;-54
2022/11/14 02:23:39;;;;;;;;;;;;;;;;;;5111567;28;19926;-56
2022/11/14 02:26:05;;;;;;;;;;;;;;;;;;5111822;28;19920;-54
2022/11/14 02:28:30;;;;;;;;;;;;;;;;;;5110497;28;19922;-55
2022/11/14 02:30:55;;;;;;;;;;;;;;;;;;5111651;28;19965;-54
2022/11/14 02:33:20;;;;;;;;;;;;;;;;;;5111069;28;20010;-54
2022/11/14 02:35:46;;;;;;;;;;;;;;;;;;5111745;28;20280;-55
2022/11/14 02:38:12;;;;;;;;;;;;;;;;;;5110254;28;19963;-55
2022/11/14 02:40:37;;;;;;;;;;;;;;;;;;5112200;28;19972;-55
2022/11/14 02:43:02;;;;;;;;;;;;;;;;;;5111676;28;20428;-55
2022/11/14 02:45:27;;;;;;;;;;;;;;;;;;5109433;28;19922;-54
2022/11/14 02:47:53;;;;;;;;;;;;;;;;;;5111661;28;20015;-55
2022/11/14 02:50:18;;;;;;;;;;;;;;;;;;5111399;28;20386;-53
2022/11/14 02:52:43;;;;;;;;;;;;;;;;;;5108285;28;19920;-53
2022/11/14 02:55:09;;;;;;;;;;;;;;;;;;5111063;28;20448;-54
2022/11/14 02:57:34;;;;;;;;;;;;;;;;;;5111604;28;19915;-54
2022/11/14 02:59:59;;;;;;;;;;;;;;;;;;5110989;27;19920;-55
2022/11/14 03:02:25;;;;;;;;;;;;;;;;;;5110722;28;19915;-53
2022/11/14 03:04:50;;;;;;;;;;;;;;;;;;5111821;28;19999;-55
2022/11/14 03:07:15;;;;;;;;;;;;;;;;;;5111359;28;19922;-54
2022/11/14 03:09:41;;;;;;;;;;;;;;;;;;5110016;28;20388;-54
2022/11/14 03:12:06;;;;;;;;;;;;;;;;;;5110572;28;20014;-57
2022/11/14 03:14:31;;;;;;;;;;;;;;;;;;5111419;28;20405;-54
2022/11/14 03:16:57;;;;;;;;;;;;;;;;;;5110762;28;19916;-55
2022/11/14 03:19:22;;;;;;;;;;;;;;;;;;5110759;28;20010;-53
2022/11/14 03:21:47;;;;;;;;;;;;;;;;;;5109261;28;19920;-54
2022/11/14 03:24:12;;;;;;;;;;;;;;;;;;5109789;28;19970;-55
2022/11/14 03:26:38;;;;;;;;;;;;;;;;;;5108754;28;19934;-53
2022/11/14 03:29:03;;;;;;;;;;;;;;;;;;5109986;28;19969;-56
2022/11/14 03:31:28;;;;;;;;;;;;;;;;;;5110067;28;20432;-55
2022/11/14 03:33:53;;;;;;;;;;;;;;;;;;5109294;28;19934;-54
2022/11/14 03:36:19;;;;;;;;;;;;;;;;;;5110215;28;20387;-55
2022/11/14 03:38:44;;;;;;;;;;;;;;;;;;5110851;28;19984;-54
2022/11/14 03:41:09;;;;;;;;;;;;;;;;;;5109713;28;19916;-54
2022/11/14 03:43:35;;;;;;;;;;;;;;;;;;5110095;28;19915;-55
2022/11/14 03:46:00;;;;;;;;;;;;;;;;;;5104290;28;20466;-53
2022/11/14 03:48:26;;;;;;;;;;;;;;;;;;5110524;28;19992;-54
2022/11/14 03:50:51;;;;;;;;;;;;;;;;;;5110085;28;19915;-55
2022/11/14 03:53:17;;;;;;;;;;;;;;;;;;5106826;28;19920;-55
2022/11/14 03:55:42;;;;;;;;;;;;;;;;;;5108799;28;19951;-53
2022/11/14 03:58:08;;;;;;;;;;;;;;;;;;5110320;28;20312;-56
2022/11/14 04:00:33;;;;;;;;;;;;;;;;;;5111374;28;19994;-55
2022/11/14 04:02:58;;;;;;;;;;;;;;;;;;5109032;28;19947;-55
2022/11/14 04:05:23;;;;;;;;;;;;;;;;;;5109611;28;19916;-54
2022/11/14 04:07:49;;;;;;;;;;;;;;;;;;5109707;28;20424;-54
2022/11/14 04:10:14;;;;;;;;;;;;;;;;;;5109582;28;19926;-56
2022/11/14 04:12:40;;;;;;;;;;;;;;;;;;5109514;28;19931;-55
2022/11/14 04:15:05;;;;;;;;;;;;;;;;;;5109868;28;19915;-55
2022/11/14 04:17:30;;;;;;;;;;;;;;;;;;5110402;28;19916;-55
2022/11/14 04:19:56;;;;;;;;;;;;;;;;;;5110627;28;19916;-55
2022/11/14 04:22:21;;;;;;;;;;;;;;;;;;5111413;27;20308;-55
2022/11/14 04:24:46;;;;;;;;;;;;;;;;;;5108436;28;19927;-55
2022/11/14 04:27:11;;;;;;;;;;;;;;;;;;5109100;28;19920;-55
2022/11/14 04:29:37;;;;;;;;;;;;;;;;;;5110247;28;19916;-55
2022/11/14 04:32:02;;;;;;;;;;;;;;;;;;5109237;28;19919;-55
2022/11/14 04:34:27;;;;;;;;;;;;;;;;;;5109428;28;20321;-54
2022/11/14 04:36:52;;;;;;;;;;;;;;;;;;5108146;28;21394;-55
2022/11/14 04:39:18;;;;;;;;;;;;;;;;;;5109084;28;19977;-53
2022/11/14 04:41:43;;;;;;;;;;;;;;;;;;5108401;28;20311;-56
2022/11/14 04:44:08;;;;;;;;;;;;;;;;;;5109285;28;19916;-56
2022/11/14 04:46:34;;;;;;;;;;;;;;;;;;5108781;28;20005;-55
2022/11/14 04:48:59;;;;;;;;;;;;;;;;;;5106696;28;20438;-55
2022/11/14 04:51:24;;;;;;;;;;;;;;;;;;5107777;28;19916;-55
2022/11/14 04:53:50;;;;;;;;;;;;;;;;;;5109679;28;19920;-55
2022/11/14 04:56:15;;;;;;;;;;;;;;;;;;5108082;28;20486;-55
2022/11/14 04:58:40;;;;;;;;;;;;;;;;;;5109089;28;19916;-55
2022/11/14 05:01:06;;;;;;;;;;;;;;;;;;5109835;28;19916;-54
2022/11/14 05:03:31;;;;;;;;;;;;;;;;;;5109384;28;20028;-56
2022/11/14 05:05:59;;;;;;;;;;;;;;;;;;5107726;28;19926;-55
2022/11/14 05:08:24;;;;;;;;;;;;;;;;;;5108627;28;19922;-55
2022/11/14 05:10:49;;;;;;;;;;;;;;;;;;5109389;28;19920;-56
2022/11/14 05:13:15;;;;;;;;;;;;;;;;;;5107481;28;19927;-55
2022/11/14 05:15:40;;;;;;;;;;;;;;;;;;5109619;28;20363;-55
2022/11/14 05:18:05;;;;;;;;;;;;;;;;;;5109627;28;19969;-55
2022/11/14 05:20:30;;;;;;;;;;;;;;;;;;5108517;28;20034;-54
2022/11/14 05:22:57;;;;;;;;;;;;;;;;;;5109054;28;19916;-56
2022/11/14 05:25:22;;;;;;;;;;;;;;;;;;5108918;28;19915;-55
2022/11/14 05:27:48;;;;;;;;;;;;;;;;;;5110745;28;19999;-56
2022/11/14 05:30:13;;;;;;;;;;;;;;;;;;5108397;28;20320;-55
2022/11/14 05:32:39;;;;;;;;;;;;;;;;;;5108519;28;19920;-56
2022/11/14 05:35:04;;;;;;;;;;;;;;;;;;5109445;28;19962;-56
2022/11/14 05:37:30;;;;;;;;;;;;;;;;;;5109253;28;20433;-54
2022/11/14 05:39:55;;;;;;;;;;;;;;;;;;5109709;28;19916;-55
2022/11/14 05:42:20;;;;;;;;;;;;;;;;;;5107684;28;19962;-56
2022/11/14 05:44:45;;;;;;;;;;;;;;;;;;5108093;28;19916;-55
2022/11/14 05:47:11;;;;;;;;;;;;;;;;;;5108551;28;19998;-57
2022/11/14 05:49:36;;;;;;;;;;;;;;;;;;5106369;28;19969;-57
2022/11/14 05:52:01;;;;;;;;;;;;;;;;;;5108203;28;20293;-55
2022/11/14 05:54:27;;;;;;;;;;;;;;;;;;5109436;28;19985;-55
2022/11/14 05:56:52;;;;;;;;;;;;;;;;;;5105523;28;19941;-56
2022/11/14 05:59:17;;;;;;;;;;;;;;;;;;5108697;28;19998;-55
2022/11/14 06:01:42;;;;;;;;;;;;;;;;;;5106412;28;19916;-54
2022/11/14 06:04:08;;;;;;;;;;;;;;;;;;5107385;28;19926;-55
2022/11/14 06:06:33;;;;;;;;;;;;;;;;;;5107836;28;19938;-58
2022/11/14 06:08:58;;;;;;;;;;;;;;;;;;5108687;28;20019;-58
2022/11/14 06:11:23;;;;;;;;;;;;;;;;;;5108135;28;19920;-58
2022/11/14 06:13:49;;;;;;;;;;;;;;;;;;5108958;28;19924;-59
2022/11/14 06:16:15;;;;;;;;;;;;;;;;;;5108431;28;20373;-59
2022/11/14 06:18:41;;;;;;;;;;;;;;;;;;5106704;28;19915;-58
2022/11/14 06:21:06;;;;;;;;;;;;;;;;;;5106863;28;19915;-59
2022/11/14 06:23:32;;;;;;;;;;;;;;;;;;5111878;28;19967;-58
2022/11/14 06:26:01;;;;;;;;;;;;;;;;;;5113313;27;19915;-58
2022/11/14 06:28:26;;;;;;;;;;;;;;;;;;5114482;27;20297;-57
2022/11/14 06:30:55;;;;;;;;;;;;;;;;;;5112280;28;19915;-59
2022/11/14 06:33:20;;;;;;;;;;;;;;;;;;5111683;28;20461;-59
2022/11/14 06:35:45;;;;;;;;;;;;;;;;;;5111357;28;19916;-59
2022/11/14 06:38:11;;;;;;;;;;;;;;;;;;5108048;28;19971;-59
2022/11/14 06:40:36;;;;;;;;;;;;;;;;;;5111105;28;19923;-58
2022/11/14 06:43:01;;;;;;;;;;;;;;;;;;5110094;28;19916;-58
2022/11/14 06:45:26;;;;;;;;;;;;;;;;;;5110478;28;19969;-59
2022/11/14 06:47:52;;;;;;;;;;;;;;;;;;5111036;28;19924;-59
2022/11/14 06:50:17;;;;;;;;;;;;;;;;;;5109397;28;19985;-59
2022/11/14 06:52:42;;;;;;;;;;;;;;;;;;5109715;28;19927;-59
2022/11/14 06:55:07;;;;;;;;;;;;;;;;;;5111354;28;19923;-58
2022/11/14 06:57:33;;;;;;;;;;;;;;;;;;5111182;27;19916;-59
2022/11/14 06:59:58;;;;;;;;;;;;;;;;;;5110946;28;19923;-59
2022/11/14 07:02:23;;;;;;;;;;;;;;;;;;5105169;28;19926;-59
2022/11/14 07:04:49;;;;;;;;;;;;;;;;;;5110787;28;19954;-60
2022/11/14 07:07:14;;;;;;;;;;;;;;;;;;5110084;28;19926;-59
2022/11/14 07:09:39;;;;;;;;;;;;;;;;;;5110243;28;20590;-58
2022/11/14 07:12:04;;;;;;;;;;;;;;;;;;5110614;28;19931;-58
2022/11/14 07:14:30;;;;;;;;;;;;;;;;;;5106768;28;20372;-58
2022/11/14 07:16:56;;;;;;;;;;;;;;;;;;5109104;28;19926;-58
2022/11/14 07:19:21;;;;;;;;;;;;;;;;;;5107175;28;19912;-59
2022/11/14 07:21:47;;;;;;;;;;;;;;;;;;5110258;28;19970;-61
2022/11/14 07:24:12;;;;;;;;;;;;;;;;;;5111412;28;19912;-59
2022/11/14 07:26:37;;;;;;;;;;;;;;;;;;5111423;28;19919;-58
2022/11/14 07:29:03;;;;;;;;;;;;;;;;;;5111677;28;20451;-59
2022/11/14 07:31:28;;;;;;;;;;;;;;;;;;5110670;28;19912;-58
2022/11/14 07:33:53;;;;;;;;;;;;;;;;;;5111078;28;19951;-58
2022/11/14 07:36:19;;;;;;;;;;;;;;;;;;5110525;28;19958;-58
2022/11/14 07:38:44;;;;;;;;;;;;;;;;;;5109485;28;19923;-58
2022/11/14 07:41:11;;;;;;;;;;;;;;;;;;5109425;28;19947;-57
2022/11/14 07:43:36;;;;;;;;;;;;;;;;;;5111251;28;20121;-58
2022/11/14 07:46:02;;;;;;;;;;;;;;;;;;5110467;28;19941;-58
2022/11/14 07:48:28;;;;;;;;;;;;;;;;;;5109877;28;19920;-59
2022/11/14 07:51:04;;;;;;;;;;;;;;;;;;5109362;28;20343;-58
2022/11/14 07:53:30;;;;;;;;;;;;;;;;;;5106681;28;19924;-58
2022/11/14 07:55:55;;;;;;;;;;;;;;;;;;5108252;28;19922;-58
2022/11/14 07:58:21;;;;;;;;;;;;;;;;;;5108804;28;19924;-59
2022/11/14 08:00:46;;;;;;;;;;;;;;;;;;5110981;27;19930;-59
2022/11/14 08:03:11;;;;;;;;;;;;;;;;;;5108262;28;20342;-59
2022/11/14 08:05:37;;;;;;;;;;;;;;;;;;5107528;28;19959;-60
2022/11/14 08:08:02;;;;;;;;;;;;;;;;;;5108747;28;19927;-60
2022/11/14 08:10:28;;;;;;;;;;;;;;;;;;5110847;27;20442;-60
2022/11/14 08:12:57;;;;;;;;;;;;;;;;;;5108065;28;19935;-60
2022/11/14 08:15:22;;;;;;;;;;;;;;;;;;5106331;28;20002;-61
2022/11/14 08:17:47;;;;;;;;;;;;;;;;;;5106831;28;20014;-60
2022/11/14 08:20:12;;;;;;;;;;;;;;;;;;5107310;28;19916;-61
2022/11/14 08:22:38;;;;;;;;;;;;;;;;;;5107201;28;19980;-61
2022/11/14 08:25:03;;;;;;;;;;;;;;;;;;5108169;28;19926;-61
2022/11/14 08:27:29;;;;;;;;;;;;;;;;;;5108396;28;20388;-61
2022/11/14 08:29:54;;;;;;;;;;;;;;;;;;5108459;28;19916;-62
2022/11/14 08:32:20;;;;;;;;;;;;;;;;;;5107876;28;20373;-62
2022/11/14 08:34:45;;;;;;;;;;;;;;;;;;5106310;28;19916;-61
2022/11/14 08:37:10;;;;;;;;;;;;;;;;;;5108468;28;20069;-62
2022/11/14 08:39:35;;;;;;;;;;;;;;;;;;5110910;27;20334;-61
2022/11/14 08:42:01;;;;;;;;;;;;;;;;;;5111299;27;19940;-61
2022/11/14 08:44:26;;;;;;;;;;;;;;;;;;5108540;28;19923;-61
2022/11/14 08:46:51;;;;;;;;;;;;;;;;;;5109854;28;20413;-62
2022/11/14 08:49:17;;;;;;;;;;;;;;;;;;5110290;28;19915;-61
2022/11/14 08:51:42;;;;;;;;;;;;;;;;;;5110406;27;19923;-61
2022/11/14 08:54:07;;;;;;;;;;;;;;;;;;5108460;27;20454;-61
2022/11/14 08:56:32;;;;;;;;;;;;;;;;;;5111552;28;19916;-61
2022/11/14 08:58:58;;;;;;;;;;;;;;;;;;5109649;27;19916;-61
2022/11/14 09:01:24;;;;;;;;;;;;;;;;;;5108724;28;20392;-61
2022/11/14 09:03:49;;;;;;;;;;;;;;;;;;5107467;28;19922;-61
2022/11/14 09:06:14;;;;;;;;;;;;;;;;;;5107089;28;19942;-61
2022/11/14 09:08:39;;;;;;;;;;;;;;;;;;5108823;28;19920;-62
2022/11/14 09:11:05;;;;;;;;;;;;;;;;;;5111224;28;19922;-61
2022/11/14 09:13:31;;;;;;;;;;;;;;;;;;5109426;27;19924;-61
2022/11/14 09:15:57;;;;;;;;;;;;;;;;;;5108755;28;19958;-61
2022/11/14 09:18:22;;;;;;;;;;;;;;;;;;5108745;28;19951;-61
2022/11/14 09:20:47;;;;;;;;;;;;;;;;;;5112453;28;19916;-61
2022/11/14 09:23:13;;;;;;;;;;;;;;;;;;5106754;28;20277;-61
2022/11/14 09:25:38;;;;;;;;;;;;;;;;;;5105566;28;20011;-61
2022/11/14 09:28:05;;;;;;;;;;;;;;;;;;5108093;28;19951;-61
2022/11/14 09:30:30;;;;;;;;;;;;;;;;;;5112343;28;19977;-60
2022/11/14 09:33:00;;;;;;;;;;;;;;;;;;5108000;28;20485;-61
2022/11/14 09:35:25;;;;;;;;;;;;;;;;;;5109490;28;19927;-61
2022/11/14 09:37:57;;;;;;;;;;;;;;;;;;5108956;28;19911;-61
2022/11/14 09:40:22;;;;;;;;;;;;;;;;;;5109662;28;19915;-61
2022/11/14 09:42:48;;;;;;;;;;;;;;;;;;5107798;28;19960;-60
2022/11/14 09:45:14;;;;;;;;;;;;;;;;;;5106994;28;19924;-61
2022/11/14 09:47:40;;;;;;;;;;;;;;;;;;5106591;28;19922;-59
2022/11/14 09:50:25;;;;;;;;;;;;;;;;;;5107930;28;19915;-60
2022/11/14 09:52:55;;;;;;;;;;;;;;;;;;5107543;28;19927;-59
2022/11/14 09:55:21;;;;;;;;;;;;;;;;;;5107131;28;20094;-59
2022/11/14 09:57:47;;;;;;;;;;;;;;;;;;5113113;27;20274;-59
2022/11/14 10:00:13;;;;;;;;;;;;;;;;;;5116281;27;19923;-58
2022/11/14 10:02:40;;;;;;;;;;;;;;;;;;5112835;28;20007;-59
2022/11/14 10:05:08;;;;;;;;;;;;;;;;;;5114796;27;19915;-59
2022/11/14 10:07:45;;;;;;;;;;;;;;;;;;5112383;27;19916;-59
2022/11/14 10:10:13;;;;;;;;;;;;;;;;;;5113063;27;20468;-59
2022/11/14 10:12:54;;;;;;;;;;;;;;;;;;5112176;27;19920;-59
2022/11/14 10:15:22;;;;;;;;;;;;;;;;;;5110800;28;20308;-59
2022/11/14 10:18:11;;;;;;;;;;;;;;;;;;5111517;27;19987;-58
2022/11/14 10:20:36;;;;;;;;;;;;;;;;;;5117190;27;20292;-58
2022/11/14 10:23:06;;;;;;;;;;;;;;;;;;5112500;27;19912;-59
2022/11/14 10:25:41;;;;;;;;;;;;;;;;;;5117147;27;19968;-57
2022/11/14 10:28:12;;;;;;;;;;;;;;;;;;5118848;27;20495;-58
2022/11/14 10:31:00;;;;;;;;;;;;;;;;;;5113143;27;19916;-58
2022/11/14 10:33:32;;;;;;;;;;;;;;;;;;5082710;27;19927;-59
2022/11/14 10:36:16;;;;;;;;;;;;;;;;;;5117392;27;19919;-59
2022/11/14 10:38:44;;;;;;;;;;;;;;;;;;5110869;27;19923;-58
2022/11/14 10:41:10;;;;;;;;;;;;;;;;;;5110958;27;19922;-58
2022/11/14 10:43:35;;;;;;;;;;;;;;;;;;5110165;27;19949;-58
2022/11/14 10:46:04;;;;;;;;;;;;;;;;;;5111313;27;19927;-58
2022/11/14 10:48:37;;;;;;;;;;;;;;;;;;5108891;27;19919;-57
2022/11/14 10:51:11;;;;;;;;;;;;;;;;;;5111240;27;19924;-57
2022/11/14 10:53:49;;;;;;;;;;;;;;;;;;5108907;27;19941;-58
2022/11/14 10:56:14;;;;;;;;;;;;;;;;;;5110192;27;19943;-58
2022/11/14 10:58:40;;;;;;;;;;;;;;;;;;5109732;27;20023;-58
2022/11/14 11:01:24;;;;;;;;;;;;;;;;;;5110530;27;20270;-58
2022/11/14 11:03:49;;;;;;;;;;;;;;;;;;5107786;27;19916;-57
2022/11/14 11:06:25;;;;;;;;;;;;;;;;;;5111474;27;19923;-57
2022/11/14 11:11:37;;;;;;;;;;;;;;;;;;5106834;27;20319;-57
2022/11/14 11:14:02;;;;;;;;;;;;;;;;;;5109731;27;19923;-57
2022/11/14 11:16:28;;;;;;;;;;;;;;;;;;5110508;28;19916;-57
2022/11/14 11:19:14;;;;;;;;;;;;;;;;;;5109469;28;20018;-57
2022/11/14 11:21:47;;;;;;;;;;;;;;;;;;5110556;27;20996;-58
2022/11/14 11:24:28;;;;;;;;;;;;;;;;;;5108333;28;19962;-57
2022/11/14 11:27:11;;;;;;;;;;;;;;;;;;5113246;27;19923;-57
2022/11/14 11:29:36;;;;;;;;;;;;;;;;;;5114069;27;19992;-57
2022/11/14 11:32:01;;;;;;;;;;;;;;;;;;5109887;27;20503;-58
2022/11/14 11:34:28;;;;;;;;;;;;;;;;;;5110757;28;19955;-57
2022/11/14 11:36:59;;;;;;;;;;;;;;;;;;5110092;27;19920;-57
2022/11/14 11:39:29;;;;;;;;;;;;;;;;;;5109537;27;19919;-57
2022/11/14 11:41:56;;;;;;;;;;;;;;;;;;5109784;27;20006;-57
2022/11/14 11:44:24;;;;;;;;;;;;;;;;;;5110262;28;19931;-57
2022/11/14 11:46:55;;;;;;;;;;;;;;;;;;5111332;27;20274;-56
2022/11/14 11:49:29;;;;;;;;;;;;;;;;;;5109435;27;19916;-57
2022/11/14 11:51:57;;;;;;;;;;;;;;;;;;5111079;27;19920;-56
2022/11/14 11:54:28;;;;;;;;;;;;;;;;;;5110688;28;20012;-58
2022/11/14 11:56:57;;;;;;;;;;;;;;;;;;5109230;27;19969;-57
2022/11/14 11:59:52;;;;;;;;;;;;;;;;;;5110625;28;19924;-56
2022/11/14 12:02:27;;;;;;;;;;;;;;;;;;5085916;28;20006;-56
2022/11/14 12:04:54;;;;;;;;;;;;;;;;;;5105549;27;20428;-56
2022/11/14 12:07:21;;;;;;;;;;;;;;;;;;5107426;28;19915;-56
2022/11/14 12:09:47;;;;;;;;;;;;;;;;;;5111570;27;19951;-58
2022/11/14 12:12:27;;;;;;;;;;;;;;;;;;5108732;27;19931;-59
2022/11/14 12:15:08;;;;;;;;;;;;;;;;;;5106279;28;19916;-59
2022/11/14 12:17:36;;;;;;;;;;;;;;;;;;5102686;27;20227;-58
2022/11/14 12:20:16;;;;;;;;;;;;;;;;;;5108256;27;19920;-57
2022/11/14 12:22:50;;;;;;;;;;;;;;;;;;5107720;27;19924;-57
2022/11/14 12:25:15;;;;;;;;;;;;;;;;;;5107152;27;20017;-58
2022/11/14 12:27:41;;;;;;;;;;;;;;;;;;5101663;27;19974;-57
2022/11/14 12:30:22;;;;;;;;;;;;;;;;;;5108417;27;19923;-57
2022/11/14 12:32:50;;;;;;;;;;;;;;;;;;5106966;28;20424;-57
2022/11/14 12:35:34;;;;;;;;;;;;;;;;;;5109428;27;20450;-57
2022/11/14 12:38:04;;;;;;;;;;;;;;;;;;5103236;28;20057;-57
2022/11/14 12:40:40;;;;;;;;;;;;;;;;;;5107774;27;20027;-57
2022/11/14 12:43:23;;;;;;;;;;;;;;;;;;5106868;28;19964;-57
2022/11/14 12:45:51;;;;;;;;;;;;;;;;;;5107767;27;20373;-57
2022/11/14 12:48:25;;;;;;;;;;;;;;;;;;5105808;28;20407;-57
2022/11/14 12:50:51;;;;;;;;;;;;;;;;;;5107175;28;19923;-57
2022/11/14 12:53:34;;;;;;;;;;;;;;;;;;5107224;27;19931;-57
2022/11/14 12:56:12;;;;;;;;;;;;;;;;;;5106383;28;19915;-57
2022/11/14 12:58:37;;;;;;;;;;;;;;;;;;5109466;28;19957;-57
2022/11/14 13:01:02;;;;;;;;;;;;;;;;;;5108602;27;19970;-58
2022/11/14 13:03:30;;;;;;;;;;;;;;;;;;5101812;27;19923;-58
2022/11/14 13:05:58;;;;;;;;;;;;;;;;;;5106901;27;19963;-57
2022/11/14 13:08:42;;;;;;;;;;;;;;;;;;5107323;28;19919;-58
2022/11/14 13:21:44;;;;;;;;;;;;;;;;;;5107817;28;19924;-57
2022/11/14 13:22:43;;;;;;;;;;;;;;;;;;5104149;28;19970;-58
2022/11/14 13:25:16;;;;;;;;;;;;;;;;;;5104956;28;19924;-58
2022/11/14 13:27:41;;;;;;;;;;;;;;;;;;5105800;28;19980;-58
2022/11/14 13:30:07;;;;;;;;;;;;;;;;;;5108277;27;19916;-59
2022/11/14 13:32:41;;;;;;;;;;;;;;;;;;5113566;27;20411;-58
2022/11/14 13:35:31;;;;;;;;;;;;;;;;;;5107798;27;19935;-58
2022/11/14 13:38:02;;;;;;;;;;;;;;;;;;5112762;27;19923;-59
2022/11/14 13:40:33;;;;;;;;;;;;;;;;;;5114419;27;19915;-58
2022/11/14 13:43:01;;;;;;;;;;;;;;;;;;5110546;28;19932;-57
2022/11/14 13:45:35;;;;;;;;;;;;;;;;;;5107918;28;19915;-58
2022/11/14 13:48:00;;;;;;;;;;;;;;;;;;5112634;27;19942;-59
2022/11/14 13:50:35;;;;;;;;;;;;;;;;;;5107787;27;20393;-57
2022/11/14 13:53:01;;;;;;;;;;;;;;;;;;5111623;27;20018;-57
2022/11/14 13:55:26;;;;;;;;;;;;;;;;;;5106964;27;20006;-58
2022/11/14 13:57:58;;;;;;;;;;;;;;;;;;5111181;27;19926;-57
2022/11/14 14:00:24;;;;;;;;;;;;;;;;;;5108077;27;20407;-58
2022/11/14 14:02:55;;;;;;;;;;;;;;;;;;5109522;27;20293;-58
2022/11/14 14:05:31;;;;;;;;;;;;;;;;;;5109480;27;19919;-58
2022/11/14 14:08:15;;;;;;;;;;;;;;;;;;5107723;27;19923;-58
2022/11/14 14:10:55;;;;;;;;;;;;;;;;;;5116047;27;19931;-58
2022/11/14 14:13:30;;;;;;;;;;;;;;;;;;5112240;27;19928;-58
2022/11/14 14:16:02;;;;;;;;;;;;;;;;;;5110811;27;19922;-57
2022/11/14 14:18:36;;;;;;;;;;;;;;;;;;5106097;27;19912;-57
2022/11/14 14:21:09;;;;;;;;;;;;;;;;;;5113233;27;19926;-58
2022/11/14 14:23:44;;;;;;;;;;;;;;;;;;5108207;27;19954;-59
2022/11/14 14:26:21;;;;;;;;;;;;;;;;;;5105378;27;20472;-59
2022/11/14 14:28:56;;;;;;;;;;;;;;;;;;5108766;27;19984;-58
2022/11/14 14:31:24;;;;;;;;;;;;;;;;;;5110014;28;20015;-58
2022/11/14 14:33:50;;;;;;;;;;;;;;;;;;5110124;27;19920;-58
2022/11/14 14:36:15;;;;;;;;;;;;;;;;;;5111855;27;19961;-58
2022/11/14 14:38:41;;;;;;;;;;;;;;;;;;5109802;28;19927;-59
2022/11/14 14:41:06;;;;;;;;;;;;;;;;;;5108662;28;20025;-59
2022/11/14 14:43:32;;;;;;;;;;;;;;;;;;5106742;27;19915;-58
2022/11/14 14:45:58;;;;;;;;;;;;;;;;;;5110183;27;19920;-58
2022/11/14 14:48:27;;;;;;;;;;;;;;;;;;5108456;28;19919;-59
2022/11/14 14:50:54;;;;;;;;;;;;;;;;;;5109169;27;19968;-58
2022/11/14 14:53:20;;;;;;;;;;;;;;;;;;5107561;27;19964;-58
2022/11/14 14:55:54;;;;;;;;;;;;;;;;;;5103295;27;19919;-58
2022/11/14 14:58:22;;;;;;;;;;;;;;;;;;5110154;28;19923;-58
2022/11/14 15:01:09;;;;;;;;;;;;;;;;;;5109375;27;20006;-58
2022/11/14 15:03:39;;;;;;;;;;;;;;;;;;5106498;28;19915;-57
2022/11/14 15:06:06;;;;;;;;;;;;;;;;;;5105900;27;20348;-59
2022/11/14 15:08:34;;;;;;;;;;;;;;;;;;5111409;27;19924;-58
2022/11/14 15:11:01;;;;;;;;;;;;;;;;;;5106430;27;19920;-58
2022/11/14 15:13:29;;;;;;;;;;;;;;;;;;5105970;28;19926;-58
2022/11/14 15:15:55;;;;;;;;;;;;;;;;;;5111860;27;19915;-57
2022/11/14 15:18:28;;;;;;;;;;;;;;;;;;5109815;27;19961;-58
2022/11/14 15:21:08;;;;;;;;;;;;;;;;;;5105917;27;19923;-58
2022/11/14 15:23:35;;;;;;;;;;;;;;;;;;5107736;28;19924;-58
2022/11/14 15:26:01;;;;;;;;;;;;;;;;;;5113351;27;19970;-58
2022/11/14 15:28:28;;;;;;;;;;;;;;;;;;5114922;27;19969;-59
2022/11/14 15:31:00;;;;;;;;;;;;;;;;;;5112084;27;19924;-58
2022/11/14 15:33:30;;;;;;;;;;;;;;;;;;5109844;27;19919;-58
2022/11/14 15:36:09;;;;;;;;;;;;;;;;;;5108270;27;20034;-58
2022/11/14 15:38:35;;;;;;;;;;;;;;;;;;5108048;27;19922;-58
2022/11/14 15:41:19;;;;;;;;;;;;;;;;;;5110765;27;19916;-57
2022/11/14 15:43:49;;;;;;;;;;;;;;;;;;5110163;27;20379;-59
2022/11/14 15:46:23;;;;;;;;;;;;;;;;;;5105593;27;19934;-59
2022/11/14 15:48:48;;;;;;;;;;;;;;;;;;5107299;28;20324;-59
2022/11/14 15:51:14;;;;;;;;;;;;;;;;;;5108839;27;19923;-59
2022/11/14 15:53:43;;;;;;;;;;;;;;;;;;5109620;27;19931;-58
2022/11/14 15:56:14;;;;;;;;;;;;;;;;;;5108305;27;19924;-60
2022/11/14 15:58:40;;;;;;;;;;;;;;;;;;5107211;27;20027;-59
2022/11/14 16:01:12;;;;;;;;;;;;;;;;;;5109760;27;20007;-59
2022/11/14 16:03:37;;;;;;;;;;;;;;;;;;5101902;28;19916;-58
2022/11/14 16:06:02;;;;;;;;;;;;;;;;;;5107649;27;19968;-58
2022/11/14 16:08:28;;;;;;;;;;;;;;;;;;5108000;28;20007;-60
2022/11/14 16:10:53;;;;;;;;;;;;;;;;;;5110057;27;19923;-61
2022/11/14 16:13:18;;;;;;;;;;;;;;;;;;5108198;27;20405;-58
2022/11/14 16:15:44;;;;;;;;;;;;;;;;;;5105253;28;19916;-59
2022/11/14 16:18:10;;;;;;;;;;;;;;;;;;5108758;28;19915;-59
2022/11/14 16:20:38;;;;;;;;;;;;;;;;;;5106398;28;20643;-59
2022/11/14 16:23:04;;;;;;;;;;;;;;;;;;5107919;28;20011;-57
2022/11/14 16:25:30;;;;;;;;;;;;;;;;;;5106433;28;19969;-59
2022/11/14 16:27:55;;;;;;;;;;;;;;;;;;5108562;28;19915;-59
2022/11/14 16:30:21;;;;;;;;;;;;;;;;;;5106094;28;19916;-59
2022/11/14 16:32:47;;;;;;;;;;;;;;;;;;5105165;28;20442;-59
2022/11/14 16:35:13;;;;;;;;;;;;;;;;;;5106666;28;19924;-57
2022/11/14 16:37:39;;;;;;;;;;;;;;;;;;5105738;28;19976;-57
2022/11/14 16:40:04;;;;;;;;;;;;;;;;;;5106781;28;20323;-57
2022/11/14 16:42:29;;;;;;;;;;;;;;;;;;5105938;28;19922;-58
2022/11/14 16:45:01;;;;;;;;;;;;;;;;;;5110313;27;19934;-59
2022/11/14 16:47:27;;;;;;;;;;;;;;;;;;5105595;28;19912;-59
2022/11/14 16:49:53;;;;;;;;;;;;;;;;;;5106556;27;20411;-59
2022/11/14 16:52:18;;;;;;;;;;;;;;;;;;5106332;28;19920;-59
2022/11/14 16:54:44;;;;;;;;;;;;;;;;;;5105667;28;19923;-57
2022/11/14 16:57:09;;;;;;;;;;;;;;;;;;5104305;27;19964;-58
2022/11/14 16:59:35;;;;;;;;;;;;;;;;;;5106393;28;19919;-58
2022/11/14 17:02:01;;;;;;;;;;;;;;;;;;5107952;28;19915;-58